sensor_id;sensor_type;location;lat;lon;timestamp;P1;durP1;ratioP1;P2;durP2;ratioP2
41115;SDS011;26861;51.824;4.682;2022-08-19T00:02:05;2.40;;;1.85;;
41115;SDS011;26861;51.824;4.682;2022-08-19T00:04:34;2.35;;;1.70;;
41115;SDS011;26861;51.824;4.682;2022-08-19T00:07:02;2.10;;;1.90;;
41115;SDS011;26861;51.824;4.682;2022-08-19T00:09:29;2.60;;;1.83;;
41115;SDS011;26861;51.824;4.682;2022-08-19T00:11:56;2.40;;;2.20;;
41115;SDS011;26861;51.824;4.682;2022-08-19T00:14:23;2.10;;;1.90;;
41115;SDS011;26861;51.824;4.682;2022-08-19T00:16:51;2.15;;;1.88;;
41115;SDS011;26861;51.824;4.682;2022-08-19T00:19:19;1.55;;;1.45;;
41115;SDS011;26861;51.824;4.682;2022-08-19T00:21:45;2.75;;;1.85;;
41115;SDS011;26861;51.824;4.682;2022-08-19T00:24:12;2.00;;;1.80;;
41115;SDS011;26861;51.824;4.682;2022-08-19T00:26:40;2.60;;;1.95;;
41115;SDS011;26861;51.824;4.682;2022-08-19T00:29:08;1.98;;;1.80;;
41115;SDS011;26861;51.824;4.682;2022-08-19T00:31:35;2.65;;;1.77;;
41115;SDS011;26861;51.824;4.682;2022-08-19T00:34:01;2.55;;;1.70;;
41115;SDS011;26861;51.824;4.682;2022-08-19T00:36:28;3.58;;;2.10;;
41115;SDS011;26861;51.824;4.682;2022-08-19T00:38:54;1.90;;;1.67;;
41115;SDS011;26861;51.824;4.682;2022-08-19T00:41:20;2.78;;;1.95;;
41115;SDS011;26861;51.824;4.682;2022-08-19T00:46:36;1.73;;;1.63;;
41115;SDS011;26861;51.824;4.682;2022-08-19T00:49:06;1.95;;;1.77;;
41115;SDS011;26861;51.824;4.682;2022-08-19T00:51:46;2.05;;;1.95;;
41115;SDS011;26861;51.824;4.682;2022-08-19T00:54:15;3.25;;;1.50;;
41115;SDS011;26861;51.824;4.682;2022-08-19T00:56:42;2.22;;;1.80;;
41115;SDS011;26861;51.824;4.682;2022-08-19T00:59:09;1.88;;;1.70;;
41115;SDS011;26861;51.824;4.682;2022-08-19T01:01:36;1.95;;;1.83;;
41115;SDS011;26861;51.824;4.682;2022-08-19T01:04:02;1.90;;;1.70;;
41115;SDS011;26861;51.824;4.682;2022-08-19T01:06:28;2.25;;;1.98;;
41115;SDS011;26861;51.824;4.682;2022-08-19T01:08:57;2.75;;;2.08;;
41115;SDS011;26861;51.824;4.682;2022-08-19T01:11:23;1.83;;;1.60;;
41115;SDS011;26861;51.824;4.682;2022-08-19T01:13:50;2.88;;;1.80;;
41115;SDS011;26861;51.824;4.682;2022-08-19T01:16:18;1.60;;;1.50;;
41115;SDS011;26861;51.824;4.682;2022-08-19T01:18:46;2.33;;;1.83;;
41115;SDS011;26861;51.824;4.682;2022-08-19T01:21:34;2.33;;;1.90;;
41115;SDS011;26861;51.824;4.682;2022-08-19T01:24:12;2.38;;;1.80;;
41115;SDS011;26861;51.824;4.682;2022-08-19T01:26:39;2.15;;;1.90;;
41115;SDS011;26861;51.824;4.682;2022-08-19T01:29:08;2.63;;;1.65;;
41115;SDS011;26861;51.824;4.682;2022-08-19T01:31:34;2.00;;;1.75;;
41115;SDS011;26861;51.824;4.682;2022-08-19T01:34:01;2.97;;;2.13;;
41115;SDS011;26861;51.824;4.682;2022-08-19T01:36:35;2.63;;;1.70;;
41115;SDS011;26861;51.824;4.682;2022-08-19T01:39:08;2.10;;;1.83;;
41115;SDS011;26861;51.824;4.682;2022-08-19T01:41:35;2.08;;;1.85;;
41115;SDS011;26861;51.824;4.682;2022-08-19T01:44:02;2.08;;;1.90;;
41115;SDS011;26861;51.824;4.682;2022-08-19T01:46:29;1.48;;;1.38;;
41115;SDS011;26861;51.824;4.682;2022-08-19T01:48:58;1.93;;;1.83;;
41115;SDS011;26861;51.824;4.682;2022-08-19T01:51:24;2.25;;;2.05;;
41115;SDS011;26861;51.824;4.682;2022-08-19T01:53:50;2.10;;;1.80;;
41115;SDS011;26861;51.824;4.682;2022-08-19T01:56:18;2.85;;;1.85;;
41115;SDS011;26861;51.824;4.682;2022-08-19T01:58:49;1.92;;;1.70;;
41115;SDS011;26861;51.824;4.682;2022-08-19T02:01:22;2.10;;;1.80;;
41115;SDS011;26861;51.824;4.682;2022-08-19T02:03:48;1.67;;;1.58;;
41115;SDS011;26861;51.824;4.682;2022-08-19T02:06:15;2.58;;;1.80;;
41115;SDS011;26861;51.824;4.682;2022-08-19T02:08:42;2.25;;;2.08;;
41115;SDS011;26861;51.824;4.682;2022-08-19T02:11:17;2.17;;;1.95;;
41115;SDS011;26861;51.824;4.682;2022-08-19T02:13:45;2.25;;;2.05;;
41115;SDS011;26861;51.824;4.682;2022-08-19T02:16:11;2.20;;;2.00;;
41115;SDS011;26861;51.824;4.682;2022-08-19T02:18:37;2.75;;;2.03;;
41115;SDS011;26861;51.824;4.682;2022-08-19T02:21:03;2.35;;;2.05;;
41115;SDS011;26861;51.824;4.682;2022-08-19T02:23:29;2.47;;;2.28;;
41115;SDS011;26861;51.824;4.682;2022-08-19T02:25:54;2.72;;;1.88;;
41115;SDS011;26861;51.824;4.682;2022-08-19T02:28:20;2.45;;;2.25;;
41115;SDS011;26861;51.824;4.682;2022-08-19T02:30:47;3.00;;;1.88;;
41115;SDS011;26861;51.824;4.682;2022-08-19T02:33:13;2.70;;;2.30;;
41115;SDS011;26861;51.824;4.682;2022-08-19T02:35:42;3.80;;;2.40;;
41115;SDS011;26861;51.824;4.682;2022-08-19T02:38:12;2.25;;;2.05;;
41115;SDS011;26861;51.824;4.682;2022-08-19T02:40:51;2.60;;;2.40;;
41115;SDS011;26861;51.824;4.682;2022-08-19T02:43:28;2.78;;;2.55;;
41115;SDS011;26861;51.824;4.682;2022-08-19T02:45:55;3.05;;;2.20;;
41115;SDS011;26861;51.824;4.682;2022-08-19T02:48:22;4.35;;;2.35;;
41115;SDS011;26861;51.824;4.682;2022-08-19T02:50:49;2.40;;;2.17;;
41115;SDS011;26861;51.824;4.682;2022-08-19T02:53:20;2.80;;;2.38;;
41115;SDS011;26861;51.824;4.682;2022-08-19T02:55:47;2.92;;;2.13;;
41115;SDS011;26861;51.824;4.682;2022-08-19T02:58:14;3.47;;;2.55;;
41115;SDS011;26861;51.824;4.682;2022-08-19T03:00:44;2.78;;;2.58;;
41115;SDS011;26861;51.824;4.682;2022-08-19T03:03:21;2.50;;;2.13;;
41115;SDS011;26861;51.824;4.682;2022-08-19T03:05:47;3.00;;;1.95;;
41115;SDS011;26861;51.824;4.682;2022-08-19T03:08:13;2.55;;;2.35;;
41115;SDS011;26861;51.824;4.682;2022-08-19T03:10:44;3.67;;;2.65;;
41115;SDS011;26861;51.824;4.682;2022-08-19T03:13:15;2.63;;;2.42;;
41115;SDS011;26861;51.824;4.682;2022-08-19T03:15:42;2.58;;;2.30;;
41115;SDS011;26861;51.824;4.682;2022-08-19T03:18:09;3.33;;;3.03;;
41115;SDS011;26861;51.824;4.682;2022-08-19T03:20:46;3.60;;;2.78;;
41115;SDS011;26861;51.824;4.682;2022-08-19T03:23:15;3.33;;;2.67;;
41115;SDS011;26861;51.824;4.682;2022-08-19T03:25:42;2.88;;;2.53;;
41115;SDS011;26861;51.824;4.682;2022-08-19T03:28:10;3.45;;;3.15;;
41115;SDS011;26861;51.824;4.682;2022-08-19T03:30:37;5.90;;;3.60;;
41115;SDS011;26861;51.824;4.682;2022-08-19T03:33:04;3.55;;;3.25;;
41115;SDS011;26861;51.824;4.682;2022-08-19T03:35:30;5.15;;;3.70;;
41115;SDS011;26861;51.824;4.682;2022-08-19T03:37:57;3.50;;;2.97;;
41115;SDS011;26861;51.824;4.682;2022-08-19T03:40:24;4.78;;;4.10;;
41115;SDS011;26861;51.824;4.682;2022-08-19T03:42:50;5.13;;;3.72;;
41115;SDS011;26861;51.824;4.682;2022-08-19T03:45:16;3.33;;;3.03;;
41115;SDS011;26861;51.824;4.682;2022-08-19T03:47:42;3.55;;;3.25;;
41115;SDS011;26861;51.824;4.682;2022-08-19T03:50:08;2.83;;;2.63;;
41115;SDS011;26861;51.824;4.682;2022-08-19T03:52:34;3.70;;;3.38;;
41115;SDS011;26861;51.824;4.682;2022-08-19T03:55:01;5.38;;;4.00;;
41115;SDS011;26861;51.824;4.682;2022-08-19T03:57:27;4.03;;;3.28;;
41115;SDS011;26861;51.824;4.682;2022-08-19T03:59:53;4.55;;;4.13;;
41115;SDS011;26861;51.824;4.682;2022-08-19T04:02:19;3.90;;;3.38;;
41115;SDS011;26861;51.824;4.682;2022-08-19T04:04:45;4.55;;;4.15;;
41115;SDS011;26861;51.824;4.682;2022-08-19T04:07:11;4.13;;;3.50;;
41115;SDS011;26861;51.824;4.682;2022-08-19T04:09:41;3.55;;;3.25;;
41115;SDS011;26861;51.824;4.682;2022-08-19T04:12:07;4.15;;;3.72;;
41115;SDS011;26861;51.824;4.682;2022-08-19T04:14:33;4.38;;;3.97;;
41115;SDS011;26861;51.824;4.682;2022-08-19T04:17:00;5.95;;;4.07;;
41115;SDS011;26861;51.824;4.682;2022-08-19T04:19:29;4.28;;;3.88;;
41115;SDS011;26861;51.824;4.682;2022-08-19T04:21:56;4.35;;;3.70;;
41115;SDS011;26861;51.824;4.682;2022-08-19T04:24:23;6.03;;;3.83;;
41115;SDS011;26861;51.824;4.682;2022-08-19T04:26:49;3.90;;;3.47;;
41115;SDS011;26861;51.824;4.682;2022-08-19T04:29:19;4.22;;;3.83;;
41115;SDS011;26861;51.824;4.682;2022-08-19T04:31:50;4.72;;;4.18;;
41115;SDS011;26861;51.824;4.682;2022-08-19T04:34:18;4.20;;;3.22;;
41115;SDS011;26861;51.824;4.682;2022-08-19T04:36:47;4.20;;;3.80;;
41115;SDS011;26861;51.824;4.682;2022-08-19T04:39:15;4.43;;;4.03;;
41115;SDS011;26861;51.824;4.682;2022-08-19T04:41:42;4.45;;;3.90;;
41115;SDS011;26861;51.824;4.682;2022-08-19T04:44:27;4.45;;;3.60;;
41115;SDS011;26861;51.824;4.682;2022-08-19T04:46:55;3.90;;;3.60;;
41115;SDS011;26861;51.824;4.682;2022-08-19T04:49:22;4.38;;;3.38;;
41115;SDS011;26861;51.824;4.682;2022-08-19T04:51:49;3.80;;;3.38;;
41115;SDS011;26861;51.824;4.682;2022-08-19T04:54:19;3.65;;;3.03;;
41115;SDS011;26861;51.824;4.682;2022-08-19T04:56:49;4.00;;;3.40;;
41115;SDS011;26861;51.824;4.682;2022-08-19T04:59:17;3.72;;;3.42;;
41115;SDS011;26861;51.824;4.682;2022-08-19T05:01:44;4.15;;;3.70;;
41115;SDS011;26861;51.824;4.682;2022-08-19T05:06:42;3.80;;;3.33;;
41115;SDS011;26861;51.824;4.682;2022-08-19T05:09:08;5.05;;;3.60;;
41115;SDS011;26861;51.824;4.682;2022-08-19T05:11:34;4.05;;;3.60;;
41115;SDS011;26861;51.824;4.682;2022-08-19T05:14:04;3.92;;;3.53;;
41115;SDS011;26861;51.824;4.682;2022-08-19T05:16:31;3.78;;;3.22;;
41115;SDS011;26861;51.824;4.682;2022-08-19T05:18:57;4.85;;;3.67;;
41115;SDS011;26861;51.824;4.682;2022-08-19T05:21:42;5.18;;;3.75;;
41115;SDS011;26861;51.824;4.682;2022-08-19T05:24:27;4.47;;;3.70;;
41115;SDS011;26861;51.824;4.682;2022-08-19T05:26:53;4.05;;;3.75;;
41115;SDS011;26861;51.824;4.682;2022-08-19T05:29:21;4.30;;;3.60;;
41115;SDS011;26861;51.824;4.682;2022-08-19T05:31:49;4.80;;;4.10;;
41115;SDS011;26861;51.824;4.682;2022-08-19T05:34:15;3.53;;;3.22;;
41115;SDS011;26861;51.824;4.682;2022-08-19T05:36:43;3.28;;;2.97;;
41115;SDS011;26861;51.824;4.682;2022-08-19T05:39:12;4.88;;;3.83;;
41115;SDS011;26861;51.824;4.682;2022-08-19T05:41:41;3.83;;;3.15;;
41115;SDS011;26861;51.824;4.682;2022-08-19T05:44:11;6.38;;;4.10;;
41115;SDS011;26861;51.824;4.682;2022-08-19T05:46:37;5.97;;;3.75;;
41115;SDS011;26861;51.824;4.682;2022-08-19T05:49:04;4.72;;;3.75;;
41115;SDS011;26861;51.824;4.682;2022-08-19T05:51:31;5.03;;;4.10;;
41115;SDS011;26861;51.824;4.682;2022-08-19T05:53:59;4.55;;;3.67;;
41115;SDS011;26861;51.824;4.682;2022-08-19T05:56:25;4.80;;;3.53;;
41115;SDS011;26861;51.824;4.682;2022-08-19T05:58:51;4.38;;;3.38;;
41115;SDS011;26861;51.824;4.682;2022-08-19T06:01:19;5.97;;;3.92;;
41115;SDS011;26861;51.824;4.682;2022-08-19T06:03:45;4.78;;;3.55;;
41115;SDS011;26861;51.824;4.682;2022-08-19T06:06:12;5.55;;;4.15;;
41115;SDS011;26861;51.824;4.682;2022-08-19T06:08:39;12.05;;;5.18;;
41115;SDS011;26861;51.824;4.682;2022-08-19T06:13:45;9.75;;;5.72;;
41115;SDS011;26861;51.824;4.682;2022-08-19T06:16:15;11.00;;;5.38;;
41115;SDS011;26861;51.824;4.682;2022-08-19T06:18:45;11.48;;;5.22;;
41115;SDS011;26861;51.824;4.682;2022-08-19T06:21:11;8.82;;;5.30;;
41115;SDS011;26861;51.824;4.682;2022-08-19T06:23:37;8.25;;;4.72;;
41115;SDS011;26861;51.824;4.682;2022-08-19T06:26:04;8.23;;;4.30;;
41115;SDS011;26861;51.824;4.682;2022-08-19T06:28:30;7.95;;;5.35;;
41115;SDS011;26861;51.824;4.682;2022-08-19T06:30:57;7.72;;;4.85;;
41115;SDS011;26861;51.824;4.682;2022-08-19T06:33:23;9.07;;;5.25;;
41115;SDS011;26861;51.824;4.682;2022-08-19T06:35:49;12.95;;;5.55;;
41115;SDS011;26861;51.824;4.682;2022-08-19T06:38:15;8.52;;;5.82;;
41115;SDS011;26861;51.824;4.682;2022-08-19T06:40:41;9.40;;;6.35;;
41115;SDS011;26861;51.824;4.682;2022-08-19T06:43:07;7.65;;;5.43;;
41115;SDS011;26861;51.824;4.682;2022-08-19T06:45:33;10.05;;;5.93;;
41115;SDS011;26861;51.824;4.682;2022-08-19T06:48:03;8.48;;;6.03;;
41115;SDS011;26861;51.824;4.682;2022-08-19T06:50:29;7.97;;;5.70;;
41115;SDS011;26861;51.824;4.682;2022-08-19T06:52:55;12.85;;;6.40;;
41115;SDS011;26861;51.824;4.682;2022-08-19T06:55:21;7.78;;;5.88;;
41115;SDS011;26861;51.824;4.682;2022-08-19T06:57:47;10.32;;;6.07;;
41115;SDS011;26861;51.824;4.682;2022-08-19T07:00:13;7.50;;;5.63;;
41115;SDS011;26861;51.824;4.682;2022-08-19T07:02:42;8.07;;;6.13;;
41115;SDS011;26861;51.824;4.682;2022-08-19T07:05:08;9.35;;;5.78;;
41115;SDS011;26861;51.824;4.682;2022-08-19T07:07:35;11.63;;;6.03;;
41115;SDS011;26861;51.824;4.682;2022-08-19T07:10:01;7.68;;;5.20;;
41115;SDS011;26861;51.824;4.682;2022-08-19T07:12:31;6.68;;;5.38;;
41115;SDS011;26861;51.824;4.682;2022-08-19T07:14:58;7.80;;;5.55;;
41115;SDS011;26861;51.824;4.682;2022-08-19T07:17:24;10.25;;;5.53;;
41115;SDS011;26861;51.824;4.682;2022-08-19T07:19:51;9.02;;;5.97;;
41115;SDS011;26861;51.824;4.682;2022-08-19T07:22:16;10.35;;;6.22;;
41115;SDS011;26861;51.824;4.682;2022-08-19T07:24:43;9.02;;;6.18;;
41115;SDS011;26861;51.824;4.682;2022-08-19T07:27:09;8.13;;;6.25;;
41115;SDS011;26861;51.824;4.682;2022-08-19T07:29:35;13.70;;;7.03;;
41115;SDS011;26861;51.824;4.682;2022-08-19T07:32:02;7.70;;;6.00;;
41115;SDS011;26861;51.824;4.682;2022-08-19T07:34:29;11.73;;;6.38;;
41115;SDS011;26861;51.824;4.682;2022-08-19T07:36:55;9.82;;;6.10;;
41115;SDS011;26861;51.824;4.682;2022-08-19T07:39:24;6.72;;;5.25;;
41115;SDS011;26861;51.824;4.682;2022-08-19T07:41:51;9.43;;;5.60;;
41115;SDS011;26861;51.824;4.682;2022-08-19T07:44:18;9.40;;;6.35;;
41115;SDS011;26861;51.824;4.682;2022-08-19T07:46:46;9.23;;;5.63;;
41115;SDS011;26861;51.824;4.682;2022-08-19T07:49:14;6.33;;;5.37;;
41115;SDS011;26861;51.824;4.682;2022-08-19T07:52:06;9.30;;;5.95;;
41115;SDS011;26861;51.824;4.682;2022-08-19T07:54:32;9.82;;;5.38;;
41115;SDS011;26861;51.824;4.682;2022-08-19T07:56:59;8.30;;;5.70;;
41115;SDS011;26861;51.824;4.682;2022-08-19T07:59:25;7.28;;;5.63;;
41115;SDS011;26861;51.824;4.682;2022-08-19T08:01:53;7.97;;;5.57;;
41115;SDS011;26861;51.824;4.682;2022-08-19T08:04:19;7.47;;;5.00;;
41115;SDS011;26861;51.824;4.682;2022-08-19T08:07:04;8.35;;;5.13;;
41115;SDS011;26861;51.824;4.682;2022-08-19T08:09:49;8.05;;;6.00;;
41115;SDS011;26861;51.824;4.682;2022-08-19T08:12:20;7.05;;;5.22;;
41115;SDS011;26861;51.824;4.682;2022-08-19T08:14:51;6.68;;;5.43;;
41115;SDS011;26861;51.824;4.682;2022-08-19T08:17:20;6.38;;;5.10;;
41115;SDS011;26861;51.824;4.682;2022-08-19T08:19:47;11.45;;;5.47;;
41115;SDS011;26861;51.824;4.682;2022-08-19T08:22:15;8.57;;;5.15;;
41115;SDS011;26861;51.824;4.682;2022-08-19T08:25:22;7.32;;;5.57;;
41115;SDS011;26861;51.824;4.682;2022-08-19T08:27:48;6.53;;;5.03;;
41115;SDS011;26861;51.824;4.682;2022-08-19T08:30:24;7.30;;;4.93;;
41115;SDS011;26861;51.824;4.682;2022-08-19T08:32:51;6.90;;;4.88;;
41115;SDS011;26861;51.824;4.682;2022-08-19T08:35:19;6.43;;;4.60;;
41115;SDS011;26861;51.824;4.682;2022-08-19T08:37:48;8.10;;;4.70;;
41115;SDS011;26861;51.824;4.682;2022-08-19T08:40:19;6.97;;;4.90;;
41115;SDS011;26861;51.824;4.682;2022-08-19T08:45:56;6.95;;;4.53;;
41115;SDS011;26861;51.824;4.682;2022-08-19T08:51:36;5.95;;;4.85;;
41115;SDS011;26861;51.824;4.682;2022-08-19T08:54:08;6.05;;;4.85;;
41115;SDS011;26861;51.824;4.682;2022-08-19T08:56:40;6.07;;;4.82;;
41115;SDS011;26861;51.824;4.682;2022-08-19T08:59:10;6.50;;;4.78;;
41115;SDS011;26861;51.824;4.682;2022-08-19T09:01:49;5.28;;;4.25;;
41115;SDS011;26861;51.824;4.682;2022-08-19T09:04:15;7.00;;;4.90;;
41115;SDS011;26861;51.824;4.682;2022-08-19T09:09:40;6.20;;;4.50;;
41115;SDS011;26861;51.824;4.682;2022-08-19T09:12:10;5.45;;;4.35;;
41115;SDS011;26861;51.824;4.682;2022-08-19T09:14:51;5.93;;;4.82;;
41115;SDS011;26861;51.824;4.682;2022-08-19T09:17:19;5.40;;;4.18;;
41115;SDS011;26861;51.824;4.682;2022-08-19T09:22:42;6.40;;;4.38;;
41115;SDS011;26861;51.824;4.682;2022-08-19T09:25:09;5.57;;;4.18;;
41115;SDS011;26861;51.824;4.682;2022-08-19T09:27:38;5.78;;;3.92;;
41115;SDS011;26861;51.824;4.682;2022-08-19T09:30:05;4.25;;;3.85;;
41115;SDS011;26861;51.824;4.682;2022-08-19T09:32:32;4.55;;;3.33;;
41115;SDS011;26861;51.824;4.682;2022-08-19T09:34:58;5.15;;;3.60;;
41115;SDS011;26861;51.824;4.682;2022-08-19T09:37:26;5.32;;;3.83;;
41115;SDS011;26861;51.824;4.682;2022-08-19T09:39:52;4.25;;;3.60;;
41115;SDS011;26861;51.824;4.682;2022-08-19T09:42:19;3.67;;;3.30;;
41115;SDS011;26861;51.824;4.682;2022-08-19T09:44:45;4.50;;;3.33;;
41115;SDS011;26861;51.824;4.682;2022-08-19T09:47:12;3.67;;;3.15;;
41115;SDS011;26861;51.824;4.682;2022-08-19T09:49:39;3.38;;;3.08;;
41115;SDS011;26861;51.824;4.682;2022-08-19T09:52:06;4.20;;;3.42;;
41115;SDS011;26861;51.824;4.682;2022-08-19T09:54:36;4.20;;;3.50;;
41115;SDS011;26861;51.824;4.682;2022-08-19T09:57:02;4.60;;;3.65;;
41115;SDS011;26861;51.824;4.682;2022-08-19T09:59:28;5.00;;;2.92;;
41115;SDS011;26861;51.824;4.682;2022-08-19T10:01:54;5.10;;;3.20;;
41115;SDS011;26861;51.824;4.682;2022-08-19T10:04:20;3.75;;;3.08;;
41115;SDS011;26861;51.824;4.682;2022-08-19T10:06:47;5.18;;;3.90;;
41115;SDS011;26861;51.824;4.682;2022-08-19T10:09:15;3.63;;;3.25;;
41115;SDS011;26861;51.824;4.682;2022-08-19T10:11:42;4.50;;;3.35;;
41115;SDS011;26861;51.824;4.682;2022-08-19T10:14:12;4.65;;;3.20;;
41115;SDS011;26861;51.824;4.682;2022-08-19T10:16:39;3.95;;;2.92;;
41115;SDS011;26861;51.824;4.682;2022-08-19T10:19:07;4.60;;;3.60;;
41115;SDS011;26861;51.824;4.682;2022-08-19T10:21:34;3.03;;;2.72;;
41115;SDS011;26861;51.824;4.682;2022-08-19T10:24:01;3.60;;;3.05;;
41115;SDS011;26861;51.824;4.682;2022-08-19T10:26:38;3.15;;;2.70;;
41115;SDS011;26861;51.824;4.682;2022-08-19T10:29:07;2.75;;;2.45;;
41115;SDS011;26861;51.824;4.682;2022-08-19T10:31:33;4.10;;;3.28;;
41115;SDS011;26861;51.824;4.682;2022-08-19T10:33:59;5.20;;;3.42;;
41115;SDS011;26861;51.824;4.682;2022-08-19T10:36:30;2.80;;;2.25;;
41115;SDS011;26861;51.824;4.682;2022-08-19T10:39:00;3.90;;;3.00;;
41115;SDS011;26861;51.824;4.682;2022-08-19T10:41:33;6.05;;;3.50;;
41115;SDS011;26861;51.824;4.682;2022-08-19T10:44:02;4.00;;;2.85;;
41115;SDS011;26861;51.824;4.682;2022-08-19T10:46:30;3.20;;;2.90;;
41115;SDS011;26861;51.824;4.682;2022-08-19T10:48:57;5.75;;;3.15;;
41115;SDS011;26861;51.824;4.682;2022-08-19T10:51:28;3.08;;;2.70;;
41115;SDS011;26861;51.824;4.682;2022-08-19T10:54:12;3.63;;;2.70;;
41115;SDS011;26861;51.824;4.682;2022-08-19T10:56:38;3.35;;;2.97;;
41115;SDS011;26861;51.824;4.682;2022-08-19T10:59:20;3.17;;;2.90;;
41115;SDS011;26861;51.824;4.682;2022-08-19T11:01:48;3.10;;;2.80;;
41115;SDS011;26861;51.824;4.682;2022-08-19T11:04:15;3.75;;;2.70;;
41115;SDS011;26861;51.824;4.682;2022-08-19T11:06:43;3.30;;;2.88;;
41115;SDS011;26861;51.824;4.682;2022-08-19T11:09:12;4.13;;;2.90;;
41115;SDS011;26861;51.824;4.682;2022-08-19T11:11:38;5.63;;;2.78;;
41115;SDS011;26861;51.824;4.682;2022-08-19T11:14:10;3.03;;;2.75;;
41115;SDS011;26861;51.824;4.682;2022-08-19T11:16:37;3.22;;;2.65;;
41115;SDS011;26861;51.824;4.682;2022-08-19T11:19:04;2.85;;;2.50;;
41115;SDS011;26861;51.824;4.682;2022-08-19T11:21:34;2.95;;;2.70;;
41115;SDS011;26861;51.824;4.682;2022-08-19T11:24:03;2.90;;;2.60;;
41115;SDS011;26861;51.824;4.682;2022-08-19T11:26:32;3.03;;;2.72;;
41115;SDS011;26861;51.824;4.682;2022-08-19T11:28:58;3.85;;;2.40;;
41115;SDS011;26861;51.824;4.682;2022-08-19T11:31:26;3.20;;;2.53;;
41115;SDS011;26861;51.824;4.682;2022-08-19T11:33:56;3.35;;;2.38;;
41115;SDS011;26861;51.824;4.682;2022-08-19T11:36:24;4.00;;;2.38;;
41115;SDS011;26861;51.824;4.682;2022-08-19T11:38:50;2.47;;;2.28;;
41115;SDS011;26861;51.824;4.682;2022-08-19T11:41:17;6.15;;;2.92;;
41115;SDS011;26861;51.824;4.682;2022-08-19T11:43:44;6.55;;;2.97;;
41115;SDS011;26861;51.824;4.682;2022-08-19T11:46:11;4.68;;;3.10;;
41115;SDS011;26861;51.824;4.682;2022-08-19T11:48:39;4.72;;;3.13;;
41115;SDS011;26861;51.824;4.682;2022-08-19T11:51:06;4.13;;;3.00;;
41115;SDS011;26861;51.824;4.682;2022-08-19T11:53:34;3.60;;;2.80;;
41115;SDS011;26861;51.824;4.682;2022-08-19T11:56:00;2.97;;;2.67;;
41115;SDS011;26861;51.824;4.682;2022-08-19T11:58:26;2.75;;;2.17;;
41115;SDS011;26861;51.824;4.682;2022-08-19T12:00:54;3.00;;;2.67;;
41115;SDS011;26861;51.824;4.682;2022-08-19T12:03:20;5.53;;;2.60;;
41115;SDS011;26861;51.824;4.682;2022-08-19T12:05:46;5.00;;;2.40;;
41115;SDS011;26861;51.824;4.682;2022-08-19T12:08:12;4.05;;;2.55;;
41115;SDS011;26861;51.824;4.682;2022-08-19T12:10:39;4.57;;;2.67;;
41115;SDS011;26861;51.824;4.682;2022-08-19T12:13:06;3.22;;;2.33;;
41115;SDS011;26861;51.824;4.682;2022-08-19T12:15:36;2.40;;;2.20;;
41115;SDS011;26861;51.824;4.682;2022-08-19T12:18:05;4.13;;;2.30;;
41115;SDS011;26861;51.824;4.682;2022-08-19T12:20:31;3.47;;;2.65;;
41115;SDS011;26861;51.824;4.682;2022-08-19T12:23:05;5.13;;;2.30;;
41115;SDS011;26861;51.824;4.682;2022-08-19T12:25:31;4.55;;;2.20;;
41115;SDS011;26861;51.824;4.682;2022-08-19T12:27:58;3.65;;;2.47;;
41115;SDS011;26861;51.824;4.682;2022-08-19T12:30:24;2.95;;;2.53;;
41115;SDS011;26861;51.824;4.682;2022-08-19T12:32:50;2.72;;;2.45;;
41115;SDS011;26861;51.824;4.682;2022-08-19T12:35:16;3.30;;;2.25;;
41115;SDS011;26861;51.824;4.682;2022-08-19T12:37:45;2.83;;;2.38;;
41115;SDS011;26861;51.824;4.682;2022-08-19T12:40:11;2.60;;;2.40;;
41115;SDS011;26861;51.824;4.682;2022-08-19T12:42:38;3.30;;;2.40;;
41115;SDS011;26861;51.824;4.682;2022-08-19T12:45:07;3.25;;;2.33;;
41115;SDS011;26861;51.824;4.682;2022-08-19T12:47:33;3.13;;;2.20;;
41115;SDS011;26861;51.824;4.682;2022-08-19T12:49:59;3.05;;;2.80;;
41115;SDS011;26861;51.824;4.682;2022-08-19T12:52:26;2.15;;;1.95;;
41115;SDS011;26861;51.824;4.682;2022-08-19T12:54:55;2.92;;;2.47;;
41115;SDS011;26861;51.824;4.682;2022-08-19T12:57:22;2.88;;;2.35;;
41115;SDS011;26861;51.824;4.682;2022-08-19T12:59:53;3.28;;;2.38;;
41115;SDS011;26861;51.824;4.682;2022-08-19T13:02:18;3.97;;;2.33;;
41115;SDS011;26861;51.824;4.682;2022-08-19T13:04:44;2.70;;;2.50;;
41115;SDS011;26861;51.824;4.682;2022-08-19T13:07:11;3.20;;;2.70;;
41115;SDS011;26861;51.824;4.682;2022-08-19T13:09:37;3.03;;;2.50;;
41115;SDS011;26861;51.824;4.682;2022-08-19T13:12:06;4.07;;;2.50;;
41115;SDS011;26861;51.824;4.682;2022-08-19T13:14:33;5.10;;;2.67;;
41115;SDS011;26861;51.824;4.682;2022-08-19T13:17:00;2.63;;;2.42;;
41115;SDS011;26861;51.824;4.682;2022-08-19T13:19:26;3.88;;;2.38;;
41115;SDS011;26861;51.824;4.682;2022-08-19T13:21:52;2.40;;;2.20;;
41115;SDS011;26861;51.824;4.682;2022-08-19T13:24:20;2.58;;;2.38;;
41115;SDS011;26861;51.824;4.682;2022-08-19T13:26:46;2.50;;;2.30;;
41115;SDS011;26861;51.824;4.682;2022-08-19T13:29:12;2.25;;;2.05;;
41115;SDS011;26861;51.824;4.682;2022-08-19T13:31:57;3.60;;;2.38;;
41115;SDS011;26861;51.824;4.682;2022-08-19T13:34:42;2.70;;;2.50;;
41115;SDS011;26861;51.824;4.682;2022-08-19T13:37:09;3.10;;;2.60;;
41115;SDS011;26861;51.824;4.682;2022-08-19T13:39:35;2.90;;;2.35;;
41115;SDS011;26861;51.824;4.682;2022-08-19T13:42:02;2.92;;;2.72;;
41115;SDS011;26861;51.824;4.682;2022-08-19T13:44:29;3.30;;;2.55;;
41115;SDS011;26861;51.824;4.682;2022-08-19T13:46:55;4.22;;;2.63;;
41115;SDS011;26861;51.824;4.682;2022-08-19T13:49:28;3.28;;;2.90;;
41115;SDS011;26861;51.824;4.682;2022-08-19T13:51:55;4.40;;;2.75;;
41115;SDS011;26861;51.824;4.682;2022-08-19T13:54:21;3.20;;;2.53;;
41115;SDS011;26861;51.824;4.682;2022-08-19T13:56:47;3.88;;;3.20;;
41115;SDS011;26861;51.824;4.682;2022-08-19T13:59:14;3.53;;;2.75;;
41115;SDS011;26861;51.824;4.682;2022-08-19T14:01:40;4.53;;;3.20;;
41115;SDS011;26861;51.824;4.682;2022-08-19T14:04:06;6.15;;;3.30;;
41115;SDS011;26861;51.824;4.682;2022-08-19T14:06:32;4.43;;;3.30;;
41115;SDS011;26861;51.824;4.682;2022-08-19T14:08:58;6.00;;;4.03;;
41115;SDS011;26861;51.824;4.682;2022-08-19T14:11:26;6.10;;;4.20;;
41115;SDS011;26861;51.824;4.682;2022-08-19T14:13:53;3.75;;;3.42;;
41115;SDS011;26861;51.824;4.682;2022-08-19T14:16:19;3.60;;;3.30;;
41115;SDS011;26861;51.824;4.682;2022-08-19T14:18:46;4.53;;;3.17;;
41115;SDS011;26861;51.824;4.682;2022-08-19T14:21:16;3.80;;;3.40;;
41115;SDS011;26861;51.824;4.682;2022-08-19T14:23:45;3.47;;;3.17;;
41115;SDS011;26861;51.824;4.682;2022-08-19T14:26:12;3.45;;;2.97;;
41115;SDS011;26861;51.824;4.682;2022-08-19T14:28:40;3.67;;;3.22;;
41115;SDS011;26861;51.824;4.682;2022-08-19T14:31:07;4.15;;;2.92;;
41115;SDS011;26861;51.824;4.682;2022-08-19T14:33:34;3.88;;;2.78;;
41115;SDS011;26861;51.824;4.682;2022-08-19T14:35:59;3.30;;;2.90;;
41115;SDS011;26861;51.824;4.682;2022-08-19T14:38:26;3.95;;;3.20;;
41115;SDS011;26861;51.824;4.682;2022-08-19T14:41:05;3.10;;;2.80;;
41115;SDS011;26861;51.824;4.682;2022-08-19T14:43:52;4.20;;;2.53;;
41115;SDS011;26861;51.824;4.682;2022-08-19T14:46:22;3.15;;;2.80;;
41115;SDS011;26861;51.824;4.682;2022-08-19T14:48:50;2.65;;;2.45;;
41115;SDS011;26861;51.824;4.682;2022-08-19T14:51:16;4.55;;;2.60;;
41115;SDS011;26861;51.824;4.682;2022-08-19T14:53:42;4.35;;;2.55;;
41115;SDS011;26861;51.824;4.682;2022-08-19T14:56:09;3.72;;;2.40;;
41115;SDS011;26861;51.824;4.682;2022-08-19T14:58:41;2.47;;;2.28;;
41115;SDS011;26861;51.824;4.682;2022-08-19T15:01:08;2.40;;;1.75;;
41115;SDS011;26861;51.824;4.682;2022-08-19T15:03:34;1.98;;;1.83;;
41115;SDS011;26861;51.824;4.682;2022-08-19T15:06:01;2.50;;;1.77;;
41115;SDS011;26861;51.824;4.682;2022-08-19T15:08:28;3.08;;;2.13;;
41115;SDS011;26861;51.824;4.682;2022-08-19T15:10:56;2.38;;;1.90;;
41115;SDS011;26861;51.824;4.682;2022-08-19T15:13:22;2.55;;;1.80;;
41115;SDS011;26861;51.824;4.682;2022-08-19T15:15:49;2.72;;;1.88;;